sensor_id;sensor_type;location;lat;lon;timestamp;pressure;altitude;pressure_sealevel;temperature;humidity
15308;BME280;7755;52.208;6.964;2023-07-29T00:02:27;100283.31;;;19.60;100.00
15308;BME280;7755;52.208;6.964;2023-07-29T00:06:32;100277.56;;;19.56;100.00
15308;BME280;7755;52.208;6.964;2023-07-29T00:10:36;100279.00;;;19.54;100.00
15308;BME280;7755;52.208;6.964;2023-07-29T00:14:40;100283.81;;;19.48;100.00
15308;BME280;7755;52.208;6.964;2023-07-29T00:18:44;100289.84;;;19.36;100.00
15308;BME280;7755;52.208;6.964;2023-07-29T00:22:47;100273.44;;;19.31;100.00
15308;BME280;7755;52.208;6.964;2023-07-29T00:26:51;100279.88;;;19.27;100.00
15308;BME280;7755;52.208;6.964;2023-07-29T00:30:55;100280.78;;;19.22;100.00
15308;BME280;7755;52.208;6.964;2023-07-29T00:34:59;100273.75;;;19.16;100.00
15308;BME280;7755;52.208;6.964;2023-07-29T00:39:02;100267.56;;;19.11;100.00
15308;BME280;7755;52.208;6.964;2023-07-29T00:43:05;100255.50;;;19.06;100.00
15308;BME280;7755;52.208;6.964;2023-07-29T00:47:11;100250.63;;;19.03;100.00
15308;BME280;7755;52.208;6.964;2023-07-29T00:51:17;100251.06;;;18.97;100.00
15308;BME280;7755;52.208;6.964;2023-07-29T00:55:20;100261.34;;;18.91;100.00
15308;BME280;7755;52.208;6.964;2023-07-29T00:59:23;100265.66;;;18.84;100.00
15308;BME280;7755;52.208;6.964;2023-07-29T01:03:27;100263.50;;;18.80;100.00
15308;BME280;7755;52.208;6.964;2023-07-29T01:07:39;100264.94;;;18.78;100.00
15308;BME280;7755;52.208;6.964;2023-07-29T01:11:48;100251.75;;;18.75;100.00
15308;BME280;7755;52.208;6.964;2023-07-29T01:15:59;100257.88;;;18.72;100.00
15308;BME280;7755;52.208;6.964;2023-07-29T01:20:07;100260.94;;;18.70;100.00
15308;BME280;7755;52.208;6.964;2023-07-29T01:24:12;100265.34;;;18.71;100.00
15308;BME280;7755;52.208;6.964;2023-07-29T01:28:15;100267.06;;;18.67;100.00
15308;BME280;7755;52.208;6.964;2023-07-29T01:32:22;100268.78;;;18.63;100.00
15308;BME280;7755;52.208;6.964;2023-07-29T01:36:30;100269.38;;;18.60;100.00
15308;BME280;7755;52.208;6.964;2023-07-29T01:40:37;100272.94;;;18.61;100.00
15308;BME280;7755;52.208;6.964;2023-07-29T01:44:41;100272.63;;;18.62;100.00
15308;BME280;7755;52.208;6.964;2023-07-29T01:48:44;100260.41;;;18.68;100.00
15308;BME280;7755;52.208;6.964;2023-07-29T01:52:48;100263.91;;;18.74;100.00
15308;BME280;7755;52.208;6.964;2023-07-29T01:56:52;100251.75;;;18.75;100.00
15308;BME280;7755;52.208;6.964;2023-07-29T02:00:55;100239.00;;;18.79;100.00
15308;BME280;7755;52.208;6.964;2023-07-29T02:04:58;100244.44;;;18.84;100.00
15308;BME280;7755;52.208;6.964;2023-07-29T02:09:01;100234.41;;;18.88;100.00
15308;BME280;7755;52.208;6.964;2023-07-29T02:13:07;100231.88;;;18.92;100.00
15308;BME280;7755;52.208;6.964;2023-07-29T02:17:10;100227.06;;;18.97;100.00
15308;BME280;7755;52.208;6.964;2023-07-29T02:21:13;100228.06;;;19.01;100.00
15308;BME280;7755;52.208;6.964;2023-07-29T02:25:16;100223.38;;;19.02;100.00
15308;BME280;7755;52.208;6.964;2023-07-29T02:29:21;100230.63;;;18.98;100.00
15308;BME280;7755;52.208;6.964;2023-07-29T02:33:24;100230.63;;;18.98;100.00
15308;BME280;7755;52.208;6.964;2023-07-29T02:37:27;100228.78;;;18.93;100.00
15308;BME280;7755;52.208;6.964;2023-07-29T02:41:30;100236.75;;;18.95;100.00
15308;BME280;7755;52.208;6.964;2023-07-29T02:45:34;100236.44;;;18.96;100.00
15308;BME280;7755;52.208;6.964;2023-07-29T02:49:37;100226.84;;;18.94;100.00
15308;BME280;7755;52.208;6.964;2023-07-29T02:53:40;100221.84;;;18.96;100.00
15308;BME280;7755;52.208;6.964;2023-07-29T02:57:43;100216.22;;;19.01;100.00
15308;BME280;7755;52.208;6.964;2023-07-29T03:01:47;100222.88;;;19.00;100.00
15308;BME280;7755;52.208;6.964;2023-07-29T03:05:57;100223.38;;;19.02;100.00
15308;BME280;7755;52.208;6.964;2023-07-29T03:10:00;100231.34;;;19.03;100.00
15308;BME280;7755;52.208;6.964;2023-07-29T03:14:03;100229.19;;;19.00;100.00
15308;BME280;7755;52.208;6.964;2023-07-29T03:18:07;100234.69;;;19.00;100.00
15308;BME280;7755;52.208;6.964;2023-07-29T03:22:11;100231.03;;;19.05;100.00
15308;BME280;7755;52.208;6.964;2023-07-29T03:26:13;100228.47;;;19.08;100.00
15308;BME280;7755;52.208;6.964;2023-07-29T03:30:19;100228.13;;;19.10;100.00
15308;BME280;7755;52.208;6.964;2023-07-29T03:34:24;100232.56;;;19.11;100.00
15308;BME280;7755;52.208;6.964;2023-07-29T03:38:28;100232.25;;;19.13;100.00
15308;BME280;7755;52.208;6.964;2023-07-29T03:42:31;100220.41;;;19.12;100.00
15308;BME280;7755;52.208;6.964;2023-07-29T03:46:34;100225.59;;;19.14;100.00
15308;BME280;7755;52.208;6.964;2023-07-29T03:50:40;100216.03;;;19.11;100.00
15308;BME280;7755;52.208;6.964;2023-07-29T03:54:43;100211.59;;;19.10;100.00
15308;BME280;7755;52.208;6.964;2023-07-29T03:58:46;100212.44;;;19.11;100.00
15308;BME280;7755;52.208;6.964;2023-07-29T04:02:49;100210.78;;;19.09;100.00
15308;BME280;7755;52.208;6.964;2023-07-29T04:06:54;100199.78;;;19.09;100.00
15308;BME280;7755;52.208;6.964;2023-07-29T04:10:57;100211.13;;;19.08;100.00
15308;BME280;7755;52.208;6.964;2023-07-29T04:15:00;100207.66;;;19.02;100.00
15308;BME280;7755;52.208;6.964;2023-07-29T04:19:03;100198.28;;;19.03;100.00
15308;BME280;7755;52.208;6.964;2023-07-29T04:23:07;100194.91;;;19.06;100.00
15308;BME280;7755;52.208;6.964;2023-07-29T04:27:10;100199.28;;;19.07;100.00
15308;BME280;7755;52.208;6.964;2023-07-29T04:31:13;100198.69;;;19.11;100.00
15308;BME280;7755;52.208;6.964;2023-07-29T04:35:16;100197.22;;;19.13;100.00
15308;BME280;7755;52.208;6.964;2023-07-29T04:39:20;100191.91;;;19.17;100.00
15308;BME280;7755;52.208;6.964;2023-07-29T04:43:26;100188.53;;;19.20;100.00
15308;BME280;7755;52.208;6.964;2023-07-29T04:47:29;100202.31;;;19.20;100.00
15308;BME280;7755;52.208;6.964;2023-07-29T04:51:32;100204.88;;;19.16;100.00
15308;BME280;7755;52.208;6.964;2023-07-29T04:55:36;100199.34;;;19.16;100.00
15308;BME280;7755;52.208;6.964;2023-07-29T04:59:39;100212.53;;;19.19;100.00
15308;BME280;7755;52.208;6.964;2023-07-29T05:03:42;100213.44;;;19.15;100.00
15308;BME280;7755;52.208;6.964;2023-07-29T05:07:46;100219.78;;;19.15;100.00
15308;BME280;7755;52.208;6.964;2023-07-29T05:11:50;100218.63;;;19.16;100.00
15308;BME280;7755;52.208;6.964;2023-07-29T05:15:53;100203.94;;;19.21;100.00
15308;BME280;7755;52.208;6.964;2023-07-29T05:19:56;100191.78;;;19.22;100.00
15308;BME280;7755;52.208;6.964;2023-07-29T05:23:59;100181.47;;;19.27;100.00
15308;BME280;7755;52.208;6.964;2023-07-29T05:28:03;100183.59;;;19.30;100.00
15308;BME280;7755;52.208;6.964;2023-07-29T05:32:07;100191.41;;;19.37;100.00
15308;BME280;7755;52.208;6.964;2023-07-29T05:36:10;100196.13;;;19.36;100.00
15308;BME280;7755;52.208;6.964;2023-07-29T05:40:13;100191.84;;;19.44;100.00
15308;BME280;7755;52.208;6.964;2023-07-29T05:44:17;100202.72;;;19.49;100.00
15308;BME280;7755;52.208;6.964;2023-07-29T05:48:20;100211.50;;;19.51;100.00
15308;BME280;7755;52.208;6.964;2023-07-29T05:52:25;100225.59;;;19.50;100.00
15308;BME280;7755;52.208;6.964;2023-07-29T05:56:27;100237.97;;;19.52;100.00
15308;BME280;7755;52.208;6.964;2023-07-29T06:00:32;100239.59;;;19.53;100.00
15308;BME280;7755;52.208;6.964;2023-07-29T06:04:35;100241.97;;;19.46;100.00
15308;BME280;7755;52.208;6.964;2023-07-29T06:08:39;100239.19;;;19.46;100.00
15308;BME280;7755;52.208;6.964;2023-07-29T06:12:42;100244.06;;;19.49;100.00
15308;BME280;7755;52.208;6.964;2023-07-29T06:16:46;100244.59;;;19.51;100.00
15308;BME280;7755;52.208;6.964;2023-07-29T06:20:49;100234.19;;;19.48;100.00
15308;BME280;7755;52.208;6.964;2023-07-29T06:24:52;100240.19;;;19.50;100.00
15308;BME280;7755;52.208;6.964;2023-07-29T06:28:55;100249.91;;;19.61;100.00
15308;BME280;7755;52.208;6.964;2023-07-29T06:32:59;100256.06;;;19.58;100.00
15308;BME280;7755;52.208;6.964;2023-07-29T06:37:02;100259.91;;;19.57;100.00
15308;BME280;7755;52.208;6.964;2023-07-29T06:41:05;100268.78;;;19.68;100.00
15308;BME280;7755;52.208;6.964;2023-07-29T06:45:11;100280.19;;;19.75;100.00
15308;BME280;7755;52.208;6.964;2023-07-29T06:49:18;100278.72;;;19.92;100.00
15308;BME280;7755;52.208;6.964;2023-07-29T06:53:22;100276.44;;;19.94;100.00
15308;BME280;7755;52.208;6.964;2023-07-29T06:57:26;100280.13;;;19.89;100.00
15308;BME280;7755;52.208;6.964;2023-07-29T07:01:29;100286.03;;;19.74;100.00
15308;BME280;7755;52.208;6.964;2023-07-29T07:05:34;100281.50;;;19.78;100.00
15308;BME280;7755;52.208;6.964;2023-07-29T07:09:37;100279.63;;;19.87;100.00
15308;BME280;7755;52.208;6.964;2023-07-29T07:13:40;100292.88;;;19.99;100.00
15308;BME280;7755;52.208;6.964;2023-07-29T07:17:43;100285.78;;;20.06;100.00
15308;BME280;7755;52.208;6.964;2023-07-29T07:21:47;100290.53;;;20.14;100.00
15308;BME280;7755;52.208;6.964;2023-07-29T07:25:51;100293.44;;;20.09;100.00
15308;BME280;7755;52.208;6.964;2023-07-29T07:29:54;100293.75;;;20.08;100.00
15308;BME280;7755;52.208;6.964;2023-07-29T07:33:57;100300.72;;;20.05;100.00
15308;BME280;7755;52.208;6.964;2023-07-29T07:38:02;100301.91;;;20.13;100.00
15308;BME280;7755;52.208;6.964;2023-07-29T07:42:06;100296.44;;;20.22;100.00
15308;BME280;7755;52.208;6.964;2023-07-29T07:46:09;100296.09;;;20.45;100.00
15308;BME280;7755;52.208;6.964;2023-07-29T07:50:12;100280.94;;;20.65;100.00
15308;BME280;7755;52.208;6.964;2023-07-29T07:54:17;100280.41;;;20.94;100.00
15308;BME280;7755;52.208;6.964;2023-07-29T07:58:20;100281.47;;;21.24;100.00
15308;BME280;7755;52.208;6.964;2023-07-29T08:02:23;100279.09;;;21.66;100.00
15308;BME280;7755;52.208;6.964;2023-07-29T08:06:26;100278.91;;;22.06;97.64
15308;BME280;7755;52.208;6.964;2023-07-29T08:10:30;100281.28;;;22.51;95.01
15308;BME280;7755;52.208;6.964;2023-07-29T08:14:33;100286.44;;;22.70;92.90
15308;BME280;7755;52.208;6.964;2023-07-29T08:18:36;100281.91;;;23.03;89.88
15308;BME280;7755;52.208;6.964;2023-07-29T08:22:39;100272.50;;;23.46;85.43
15308;BME280;7755;52.208;6.964;2023-07-29T08:26:43;100273.25;;;23.76;82.66
15308;BME280;7755;52.208;6.964;2023-07-29T08:30:47;100276.28;;;24.04;82.16
15308;BME280;7755;52.208;6.964;2023-07-29T08:34:50;100280.41;;;24.31;82.21
15308;BME280;7755;52.208;6.964;2023-07-29T08:38:53;100278.28;;;24.49;78.90
15308;BME280;7755;52.208;6.964;2023-07-29T08:43:04;100273.72;;;24.32;75.63
15308;BME280;7755;52.208;6.964;2023-07-29T08:47:07;100271.25;;;24.64;78.28
15308;BME280;7755;52.208;6.964;2023-07-29T08:51:12;100268.25;;;25.18;76.05
15308;BME280;7755;52.208;6.964;2023-07-29T08:55:15;100269.28;;;25.25;73.69
15308;BME280;7755;52.208;6.964;2023-07-29T08:59:20;100273.94;;;25.34;72.40
15308;BME280;7755;52.208;6.964;2023-07-29T09:03:23;100278.66;;;25.33;70.79
15308;BME280;7755;52.208;6.964;2023-07-29T09:07:27;100277.38;;;25.55;70.61
15308;BME280;7755;52.208;6.964;2023-07-29T09:11:30;100282.69;;;25.72;69.75
15308;BME280;7755;52.208;6.964;2023-07-29T09:15:35;100272.22;;;25.81;67.79
15308;BME280;7755;52.208;6.964;2023-07-29T09:19:39;100269.44;;;25.81;67.41
15308;BME280;7755;52.208;6.964;2023-07-29T09:23:42;100286.53;;;26.24;68.36
15308;BME280;7755;52.208;6.964;2023-07-29T09:27:47;100282.03;;;25.91;68.06
15308;BME280;7755;52.208;6.964;2023-07-29T09:31:51;100283.09;;;25.22;70.27
15308;BME280;7755;52.208;6.964;2023-07-29T09:35:54;100283.31;;;24.68;72.91
15308;BME280;7755;52.208;6.964;2023-07-29T09:39:57;100278.44;;;24.53;75.06
15308;BME280;7755;52.208;6.964;2023-07-29T09:44:04;100290.69;;;24.39;75.44
15308;BME280;7755;52.208;6.964;2023-07-29T09:48:08;100287.09;;;23.85;78.25
15308;BME280;7755;52.208;6.964;2023-07-29T09:52:14;100289.81;;;23.73;79.09
15308;BME280;7755;52.208;6.964;2023-07-29T09:56:17;100294.13;;;23.61;81.06
15308;BME280;7755;52.208;6.964;2023-07-29T10:00:21;100292.47;;;23.60;81.39
15308;BME280;7755;52.208;6.964;2023-07-29T10:04:26;100296.00;;;23.69;82.49
15308;BME280;7755;52.208;6.964;2023-07-29T10:08:30;100302.34;;;23.49;82.82
15308;BME280;7755;52.208;6.964;2023-07-29T10:12:34;100310.28;;;23.30;83.93
15308;BME280;7755;52.208;6.964;2023-07-29T10:16:39;100307.63;;;23.12;84.31
15308;BME280;7755;52.208;6.964;2023-07-29T10:20:47;100306.81;;;23.12;83.39
15308;BME280;7755;52.208;6.964;2023-07-29T10:24:53;100297.47;;;23.46;83.43
15308;BME280;7755;52.208;6.964;2023-07-29T10:28:59;100295.69;;;23.92;79.06
15308;BME280;7755;52.208;6.964;2023-07-29T10:33:06;100300.75;;;24.44;77.11
15308;BME280;7755;52.208;6.964;2023-07-29T10:37:11;100296.31;;;25.00;73.11
15308;BME280;7755;52.208;6.964;2023-07-29T10:41:14;100298.84;;;25.54;70.83
15308;BME280;7755;52.208;6.964;2023-07-29T10:45:18;100286.97;;;25.82;70.47
15308;BME280;7755;52.208;6.964;2023-07-29T10:49:23;100294.13;;;26.11;68.55
15308;BME280;7755;52.208;6.964;2023-07-29T10:53:31;100291.97;;;25.64;69.11
15308;BME280;7755;52.208;6.964;2023-07-29T10:57:35;100301.88;;;25.13;70.01
15308;BME280;7755;52.208;6.964;2023-07-29T11:01:40;100295.28;;;25.17;70.37
15308;BME280;7755;52.208;6.964;2023-07-29T11:05:47;100292.72;;;25.37;67.01
15308;BME280;7755;52.208;6.964;2023-07-29T11:09:58;100288.66;;;25.86;69.73
15308;BME280;7755;52.208;6.964;2023-07-29T11:14:01;100287.91;;;26.30;64.26
15308;BME280;7755;52.208;6.964;2023-07-29T11:18:05;100291.38;;;26.86;63.83
15308;BME280;7755;52.208;6.964;2023-07-29T11:22:11;100290.47;;;26.98;61.63
15308;BME280;7755;52.208;6.964;2023-07-29T11:26:15;100287.91;;;27.40;60.90
15308;BME280;7755;52.208;6.964;2023-07-29T11:30:19;100288.56;;;27.02;60.41
15308;BME280;7755;52.208;6.964;2023-07-29T11:34:31;100294.34;;;26.62;59.42
15308;BME280;7755;52.208;6.964;2023-07-29T11:38:34;100279.69;;;26.21;61.52
15308;BME280;7755;52.208;6.964;2023-07-29T11:42:40;100271.50;;;25.84;64.80
15308;BME280;7755;52.208;6.964;2023-07-29T11:46:43;100273.66;;;25.51;63.68
15308;BME280;7755;52.208;6.964;2023-07-29T11:50:46;100278.34;;;25.22;64.95
15308;BME280;7755;52.208;6.964;2023-07-29T11:54:49;100274.31;;;25.08;66.11
15308;BME280;7755;52.208;6.964;2023-07-29T11:58:54;100277.28;;;24.66;67.19
15308;BME280;7755;52.208;6.964;2023-07-29T12:02:58;100271.13;;;24.60;68.60
15308;BME280;7755;52.208;6.964;2023-07-29T12:07:02;100274.81;;;24.52;69.89
15308;BME280;7755;52.208;6.964;2023-07-29T12:11:06;100269.19;;;24.73;70.57
15308;BME280;7755;52.208;6.964;2023-07-29T12:15:11;100271.63;;;25.11;69.24
15308;BME280;7755;52.208;6.964;2023-07-29T12:19:15;100268.25;;;25.18;69.24
15308;BME280;7755;52.208;6.964;2023-07-29T12:23:24;100267.53;;;25.33;68.76
15308;BME280;7755;52.208;6.964;2023-07-29T12:27:27;100259.97;;;25.46;69.91
15308;BME280;7755;52.208;6.964;2023-07-29T12:31:37;100272.50;;;25.52;69.14
15308;BME280;7755;52.208;6.964;2023-07-29T12:35:40;100266.44;;;25.62;68.79
15308;BME280;7755;52.208;6.964;2023-07-29T12:39:43;100273.31;;;25.52;67.98
15308;BME280;7755;52.208;6.964;2023-07-29T12:43:46;100279.59;;;25.37;67.04
15308;BME280;7755;52.208;6.964;2023-07-29T12:47:50;100270.25;;;25.05;68.34
15308;BME280;7755;52.208;6.964;2023-07-29T12:51:53;100270.34;;;24.96;69.65
15308;BME280;7755;52.208;6.964;2023-07-29T12:55:56;100283.91;;;24.73;70.98
15308;BME280;7755;52.208;6.964;2023-07-29T13:00:00;100275.88;;;24.60;71.66
15308;BME280;7755;52.208;6.964;2023-07-29T13:04:04;100280.94;;;24.33;73.05
15308;BME280;7755;52.208;6.964;2023-07-29T13:08:07;100288.78;;;24.10;73.40
15308;BME280;7755;52.208;6.964;2023-07-29T13:12:10;100281.03;;;23.83;74.91
15308;BME280;7755;52.208;6.964;2023-07-29T13:16:13;100283.47;;;23.63;76.51
15308;BME280;7755;52.208;6.964;2023-07-29T13:20:17;100295.31;;;23.52;80.81
15308;BME280;7755;52.208;6.964;2023-07-29T13:24:20;100300.31;;;23.37;85.28
15308;BME280;7755;52.208;6.964;2023-07-29T13:28:23;100311.06;;;23.09;89.80
15308;BME280;7755;52.208;6.964;2023-07-29T13:32:26;100309.22;;;22.75;92.01
15308;BME280;7755;52.208;6.964;2023-07-29T13:36:31;100312.53;;;22.60;96.38
15308;BME280;7755;52.208;6.964;2023-07-29T13:40:34;100329.06;;;22.39;98.97
15308;BME280;7755;52.208;6.964;2023-07-29T13:44:39;100322.72;;;22.21;100.00
15308;BME280;7755;52.208;6.964;2023-07-29T13:48:42;100313.63;;;22.12;100.00
15308;BME280;7755;52.208;6.964;2023-07-29T13:52:46;100318.47;;;22.32;100.00
15308;BME280;7755;52.208;6.964;2023-07-29T13:56:49;100315.63;;;22.67;100.00
15308;BME280;7755;52.208;6.964;2023-07-29T14:00:52;100317.44;;;23.10;100.00
15308;BME280;7755;52.208;6.964;2023-07-29T14:04:55;100324.88;;;23.48;100.00
15308;BME280;7755;52.208;6.964;2023-07-29T14:09:00;100327.00;;;23.51;98.27
15308;BME280;7755;52.208;6.964;2023-07-29T14:13:03;100329.00;;;23.71;97.31
15308;BME280;7755;52.208;6.964;2023-07-29T14:17:07;100328.13;;;23.79;92.88
15308;BME280;7755;52.208;6.964;2023-07-29T14:21:11;100332.44;;;24.10;92.92
15308;BME280;7755;52.208;6.964;2023-07-29T14:25:15;100342.16;;;24.37;89.19
15308;BME280;7755;52.208;6.964;2023-07-29T14:29:18;100336.00;;;24.64;82.94
15308;BME280;7755;52.208;6.964;2023-07-29T14:33:21;100339.03;;;24.84;81.15
15308;BME280;7755;52.208;6.964;2023-07-29T14:37:24;100346.25;;;24.97;79.21
15308;BME280;7755;52.208;6.964;2023-07-29T14:41:29;100350.59;;;24.61;78.96
15308;BME280;7755;52.208;6.964;2023-07-29T14:45:32;100348.25;;;24.51;81.29
15308;BME280;7755;52.208;6.964;2023-07-29T14:49:35;100350.16;;;24.38;82.46
15308;BME280;7755;52.208;6.964;2023-07-29T14:53:38;100346.63;;;24.29;83.25
15308;BME280;7755;52.208;6.964;2023-07-29T14:57:42;100333.22;;;23.98;80.87
15308;BME280;7755;52.208;6.964;2023-07-29T15:01:46;100332.88;;;23.79;83.24
15308;BME280;7755;52.208;6.964;2023-07-29T15:05:50;100330.28;;;23.74;83.08
15308;BME280;7755;52.208;6.964;2023-07-29T15:09:53;100322.03;;;23.86;81.99
15308;BME280;7755;52.208;6.964;2023-07-29T15:13:57;100320.94;;;23.99;79.75
15308;BME280;7755;52.208;6.964;2023-07-29T15:18:01;100325.75;;;23.90;80.28
15308;BME280;7755;52.208;6.964;2023-07-29T15:22:04;100321.06;;;23.82;81.51
15308;BME280;7755;52.208;6.964;2023-07-29T15:26:07;100322.50;;;23.88;82.13
15308;BME280;7755;52.208;6.964;2023-07-29T15:30:12;100314.16;;;23.88;83.03
15308;BME280;7755;52.208;6.964;2023-07-29T15:34:15;100313.47;;;23.91;82.63
15308;BME280;7755;52.208;6.964;2023-07-29T15:38:19;100310.56;;;23.87;80.97
15308;BME280;7755;52.208;6.964;2023-07-29T15:42:22;100305.75;;;23.96;82.17
15308;BME280;7755;52.208;6.964;2023-07-29T15:46:26;100299.94;;;24.22;82.48
15308;BME280;7755;52.208;6.964;2023-07-29T15:50:30;100299.28;;;24.26;80.46
15308;BME280;7755;52.208;6.964;2023-07-29T15:54:33;100302.94;;;24.17;79.71
15308;BME280;7755;52.208;6.964;2023-07-29T15:58:36;100302.28;;;24.20;79.91
15308;BME280;7755;52.208;6.964;2023-07-29T16:02:41;100298.34;;;24.21;80.32
15308;BME280;7755;52.208;6.964;2023-07-29T16:06:44;100305.31;;;24.28;79.42
15308;BME280;7755;52.208;6.964;2023-07-29T16:10:47;100293.59;;;24.22;79.96
15308;BME280;7755;52.208;6.964;2023-07-29T16:14:50;100301.66;;;24.15;80.88
15308;BME280;7755;52.208;6.964;2023-07-29T16:18:55;100291.72;;;24.14;81.91
15308;BME280;7755;52.208;6.964;2023-07-29T16:22:58;100284.06;;;24.11;80.30
15308;BME280;7755;52.208;6.964;2023-07-29T16:27:01;100292.81;;;24.01;81.95
15308;BME280;7755;52.208;6.964;2023-07-29T16:31:06;100293.63;;;24.01;83.56
15308;BME280;7755;52.208;6.964;2023-07-29T16:35:11;100304.94;;;23.96;81.77
15308;BME280;7755;52.208;6.964;2023-07-29T16:39:14;100289.59;;;23.78;80.87
15308;BME280;7755;52.208;6.964;2023-07-29T16:43:18;100288.09;;;23.80;80.98
15308;BME280;7755;52.208;6.964;2023-07-29T16:47:21;100288.91;;;23.81;81.27
15308;BME280;7755;52.208;6.964;2023-07-29T16:51:27;100275.13;;;23.72;83.12
15308;BME280;7755;52.208;6.964;2023-07-29T16:55:31;100283.09;;;23.74;84.35
15308;BME280;7755;52.208;6.964;2023-07-29T16:59:34;100288.19;;;23.72;84.04
15308;BME280;7755;52.208;6.964;2023-07-29T17:03:37;100284.00;;;23.57;84.89
15308;BME280;7755;52.208;6.964;2023-07-29T17:07:42;100287.31;;;23.50;84.85
15308;BME280;7755;52.208;6.964;2023-07-29T17:11:46;100277.91;;;23.42;85.57
15308;BME280;7755;52.208;6.964;2023-07-29T17:15:49;100288.88;;;23.39;85.99
15308;BME280;7755;52.208;6.964;2023-07-29T17:19:52;100286.47;;;23.29;86.13
15308;BME280;7755;52.208;6.964;2023-07-29T17:23:57;100300.59;;;23.15;86.49
15308;BME280;7755;52.208;6.964;2023-07-29T17:28:01;100303.72;;;23.13;87.47
15308;BME280;7755;52.208;6.964;2023-07-29T17:32:07;100310.47;;;23.04;88.44
15308;BME280;7755;52.208;6.964;2023-07-29T17:36:10;100311.75;;;23.06;88.47
15308;BME280;7755;52.208;6.964;2023-07-29T17:40:16;100305.22;;;23.02;88.61
15308;BME280;7755;52.208;6.964;2023-07-29T17:44:19;100317.00;;;22.99;89.25
15308;BME280;7755;52.208;6.964;2023-07-29T17:48:33;100311.66;;;22.85;89.87
15308;BME280;7755;52.208;6.964;2023-07-29T17:52:36;100307.44;;;22.79;90.21
15308;BME280;7755;52.208;6.964;2023-07-29T17:56:41;100311.06;;;22.71;90.93
15308;BME280;7755;52.208;6.964;2023-07-29T18:00:48;100304.34;;;22.72;91.13
15308;BME280;7755;52.208;6.964;2023-07-29T18:04:54;100303.56;;;22.72;91.28
15308;BME280;7755;52.208;6.964;2023-07-29T18:08:57;100288.88;;;22.71;91.30
15308;BME280;7755;52.208;6.964;2023-07-29T18:13:01;100284.16;;;22.72;91.17
15308;BME280;7755;52.208;6.964;2023-07-29T18:17:08;100289.41;;;22.65;91.36
15308;BME280;7755;52.208;6.964;2023-07-29T18:21:11;100289.25;;;22.52;91.85
15308;BME280;7755;52.208;6.964;2023-07-29T18:25:14;100302.66;;;22.42;92.28
15308;BME280;7755;52.208;6.964;2023-07-29T18:29:19;100305.63;;;22.37;92.87
15308;BME280;7755;52.208;6.964;2023-07-29T18:33:22;100310.97;;;22.33;92.86
15308;BME280;7755;52.208;6.964;2023-07-29T18:37:25;100317.38;;;22.16;94.07
15308;BME280;7755;52.208;6.964;2023-07-29T18:41:29;100324.50;;;22.00;95.06
15308;BME280;7755;52.208;6.964;2023-07-29T18:45:41;100332.66;;;21.96;95.70
15308;BME280;7755;52.208;6.964;2023-07-29T18:49:56;100329.88;;;21.88;96.26
15308;BME280;7755;52.208;6.964;2023-07-29T18:54:00;100330.03;;;21.74;96.44
15308;BME280;7755;52.208;6.964;2023-07-29T18:58:03;100329.56;;;21.63;96.78
15308;BME280;7755;52.208;6.964;2023-07-29T19:02:08;100332.47;;;21.49;96.89
15308;BME280;7755;52.208;6.964;2023-07-29T19:06:11;100335.38;;;21.44;97.42
15308;BME280;7755;52.208;6.964;2023-07-29T19:10:16;100332.63;;;21.44;97.96
15308;BME280;7755;52.208;6.964;2023-07-29T19:14:20;100338.47;;;21.43;98.34
15308;BME280;7755;52.208;6.964;2023-07-29T19:18:25;100338.16;;;21.44;98.68
15308;BME280;7755;52.208;6.964;2023-07-29T19:22:29;100343.69;;;21.44;99.28
15308;BME280;7755;52.208;6.964;2023-07-29T19:26:34;100343.16;;;21.34;100.00
15308;BME280;7755;52.208;6.964;2023-07-29T19:30:39;100352.06;;;21.22;100.00
15308;BME280;7755;52.208;6.964;2023-07-29T19:34:44;100346.00;;;21.11;100.00
15308;BME280;7755;52.208;6.964;2023-07-29T19:38:53;100346.44;;;21.05;100.00
15308;BME280;7755;52.208;6.964;2023-07-29T19:42:57;100356.81;;;20.99;100.00
15308;BME280;7755;52.208;6.964;2023-07-29T19:47:00;100347.03;;;20.93;100.00
15308;BME280;7755;52.208;6.964;2023-07-29T19:51:04;100354.69;;;20.87;100.00
15308;BME280;7755;52.208;6.964;2023-07-29T19:55:08;100351.38;;;20.77;100.00
15308;BME280;7755;52.208;6.964;2023-07-29T19:59:11;100343.81;;;20.60;100.00
15308;BME280;7755;52.208;6.964;2023-07-29T20:03:15;100351.22;;;20.51;100.00
15308;BME280;7755;52.208;6.964;2023-07-29T20:07:20;100346.81;;;20.50;100.00
15308;BME280;7755;52.208;6.964;2023-07-29T20:11:23;100346.03;;;20.49;100.00
15308;BME280;7755;52.208;6.964;2023-07-29T20:15:26;100342.25;;;20.45;100.00
15308;BME280;7755;52.208;6.964;2023-07-29T20:19:29;100351.78;;;20.39;100.00
15308;BME280;7755;52.208;6.964;2023-07-29T20:23:40;100358.84;;;20.31;100.00
15308;BME280;7755;52.208;6.964;2023-07-29T20:27:44;100346.00;;;20.27;100.00
15308;BME280;7755;52.208;6.964;2023-07-29T20:31:54;100342.72;;;20.25;100.00
15308;BME280;7755;52.208;6.964;2023-07-29T20:35:59;100347.63;;;20.28;100.00
15308;BME280;7755;52.208;6.964;2023-07-29T20:40:05;100358.19;;;20.26;100.00
15308;BME280;7755;52.208;6.964;2023-07-29T20:44:08;100368.66;;;20.15;100.00
15308;BME280;7755;52.208;6.964;2023-07-29T20:48:27;100370.00;;;20.04;100.00
15308;BME280;7755;52.208;6.964;2023-07-29T20:52:31;100390.56;;;19.98;100.00
15308;BME280;7755;52.208;6.964;2023-07-29T20:56:35;100401.53;;;19.89;100.00
15308;BME280;7755;52.208;6.964;2023-07-29T21:00:39;100398.28;;;19.87;100.00
15308;BME280;7755;52.208;6.964;2023-07-29T21:04:44;100405.03;;;19.81;100.00
15308;BME280;7755;52.208;6.964;2023-07-29T21:08:48;100393.28;;;19.75;100.00
15308;BME280;7755;52.208;6.964;2023-07-29T21:12:53;100384.13;;;19.66;100.00
15308;BME280;7755;52.208;6.964;2023-07-29T21:16:57;100391.56;;;19.52;100.00
15308;BME280;7755;52.208;6.964;2023-07-29T21:21:01;100396.97;;;19.43;100.00
15308;BME280;7755;52.208;6.964;2023-07-29T21:25:07;100384.63;;;19.41;100.00